sensor_id;sensor_type;location;lat;lon;timestamp;pressure;altitude;pressure_sealevel;temperature;humidity
59104;BME280;51449;51.676;5.812;2023-09-19T00:02:02;100684.69;;;16.59;75.30
59104;BME280;51449;51.676;5.812;2023-09-19T00:04:31;100690.28;;;16.63;74.95
59104;BME280;51449;51.676;5.812;2023-09-19T00:06:54;100697.44;;;16.64;75.25
59104;BME280;51449;51.676;5.812;2023-09-19T00:09:16;100699.47;;;16.67;75.08
59104;BME280;51449;51.676;5.812;2023-09-19T00:11:37;100699.88;;;16.65;75.10
59104;BME280;51449;51.676;5.812;2023-09-19T00:14:00;100703.44;;;16.66;74.91
59104;BME280;51449;51.676;5.812;2023-09-19T00:16:21;100705.81;;;16.67;74.86
59104;BME280;51449;51.676;5.812;2023-09-19T00:18:44;100702.66;;;16.65;74.64
59104;BME280;51449;51.676;5.812;2023-09-19T00:21:06;100701.78;;;16.61;74.58
59104;BME280;51449;51.676;5.812;2023-09-19T00:23:29;100704.91;;;16.56;74.86
59104;BME280;51449;51.676;5.812;2023-09-19T00:25:51;100704.84;;;16.53;74.74
59104;BME280;51449;51.676;5.812;2023-09-19T00:28:12;100704.38;;;16.47;74.89
59104;BME280;51449;51.676;5.812;2023-09-19T00:30:35;100709.16;;;16.46;74.84
59104;BME280;51449;51.676;5.812;2023-09-19T00:32:56;100711.88;;;16.43;75.18
59104;BME280;51449;51.676;5.812;2023-09-19T00:35:18;100699.53;;;16.40;75.01
59104;BME280;51449;51.676;5.812;2023-09-19T00:37:41;100709.41;;;16.38;74.99
59104;BME280;51449;51.676;5.812;2023-09-19T00:40:07;100724.88;;;16.35;74.95
59104;BME280;51449;51.676;5.812;2023-09-19T00:42:49;100721.22;;;16.31;75.04
59104;BME280;51449;51.676;5.812;2023-09-19T00:45:13;100722.44;;;16.30;75.19
59104;BME280;51449;51.676;5.812;2023-09-19T00:47:41;100722.78;;;16.29;75.00
59104;BME280;51449;51.676;5.812;2023-09-19T00:50:06;100714.78;;;16.23;75.16
59104;BME280;51449;51.676;5.812;2023-09-19T00:52:30;100721.88;;;16.21;75.27
59104;BME280;51449;51.676;5.812;2023-09-19T00:54:54;100721.84;;;16.17;75.19
59104;BME280;51449;51.676;5.812;2023-09-19T00:57:16;100727.78;;;16.16;75.25
59104;BME280;51449;51.676;5.812;2023-09-19T00:59:39;100734.53;;;16.15;75.34
59104;BME280;51449;51.676;5.812;2023-09-19T01:02:02;100724.97;;;16.12;75.39
59104;BME280;51449;51.676;5.812;2023-09-19T01:04:26;100735.63;;;16.10;75.58
59104;BME280;51449;51.676;5.812;2023-09-19T01:06:49;100740.75;;;16.08;75.61
59104;BME280;51449;51.676;5.812;2023-09-19T01:09:14;100741.53;;;16.05;75.64
59104;BME280;51449;51.676;5.812;2023-09-19T01:11:43;100746.66;;;16.03;75.80
59104;BME280;51449;51.676;5.812;2023-09-19T01:17:30;100748.56;;;15.99;75.69
59104;BME280;51449;51.676;5.812;2023-09-19T01:20:11;100746.97;;;15.98;75.74
59104;BME280;51449;51.676;5.812;2023-09-19T01:22:56;100750.53;;;15.98;75.66
59104;BME280;51449;51.676;5.812;2023-09-19T01:25:42;100753.28;;;15.95;75.61
59104;BME280;51449;51.676;5.812;2023-09-19T01:28:34;100755.66;;;15.96;75.51
59104;BME280;51449;51.676;5.812;2023-09-19T01:31:09;100757.66;;;15.96;75.49
59104;BME280;51449;51.676;5.812;2023-09-19T01:33:56;100767.56;;;15.97;75.28
59104;BME280;51449;51.676;5.812;2023-09-19T01:36:21;100762.31;;;15.92;75.28
59104;BME280;51449;51.676;5.812;2023-09-19T01:38:45;100769.50;;;15.93;75.22
59104;BME280;51449;51.676;5.812;2023-09-19T01:41:11;100770.66;;;15.92;75.21
59104;BME280;51449;51.676;5.812;2023-09-19T01:43:42;100778.19;;;15.91;74.95
59104;BME280;51449;51.676;5.812;2023-09-19T01:46:20;100778.19;;;15.91;74.96
59104;BME280;51449;51.676;5.812;2023-09-19T01:51:34;100777.41;;;15.91;74.75
59104;BME280;51449;51.676;5.812;2023-09-19T01:54:12;100779.72;;;15.85;74.67
59104;BME280;51449;51.676;5.812;2023-09-19T01:56:50;100772.09;;;15.82;74.47
59104;BME280;51449;51.676;5.812;2023-09-19T01:59:20;100773.28;;;15.81;74.48
59104;BME280;51449;51.676;5.812;2023-09-19T02:01:46;100771.59;;;15.76;74.18
59104;BME280;51449;51.676;5.812;2023-09-19T02:04:11;100770.72;;;15.72;73.85
59104;BME280;51449;51.676;5.812;2023-09-19T02:06:33;100771.56;;;15.73;73.89
59104;BME280;51449;51.676;5.812;2023-09-19T02:08:55;100775.50;;;15.72;73.70
59104;BME280;51449;51.676;5.812;2023-09-19T02:11:17;100781.75;;;15.69;73.44
59104;BME280;51449;51.676;5.812;2023-09-19T02:13:40;100782.56;;;15.69;73.58
59104;BME280;51449;51.676;5.812;2023-09-19T02:16:03;100779.34;;;15.67;73.31
59104;BME280;51449;51.676;5.812;2023-09-19T02:18:25;100777.75;;;15.66;73.17
59104;BME280;51449;51.676;5.812;2023-09-19T02:20:49;100784.47;;;15.65;73.07
59104;BME280;51449;51.676;5.812;2023-09-19T02:23:13;100787.97;;;15.62;73.06
59104;BME280;51449;51.676;5.812;2023-09-19T02:25:35;100787.53;;;15.60;73.02
59104;BME280;51449;51.676;5.812;2023-09-19T02:27:57;100791.06;;;15.57;73.05
59104;BME280;51449;51.676;5.812;2023-09-19T02:30:20;100791.06;;;15.57;72.78
59104;BME280;51449;51.676;5.812;2023-09-19T02:32:44;100793.41;;;15.55;72.85
59104;BME280;51449;51.676;5.812;2023-09-19T02:35:07;100793.34;;;15.51;72.73
59104;BME280;51449;51.676;5.812;2023-09-19T02:37:29;100790.94;;;15.50;72.80
59104;BME280;51449;51.676;5.812;2023-09-19T02:39:50;100793.28;;;15.48;72.65
59104;BME280;51449;51.676;5.812;2023-09-19T02:42:12;100805.13;;;15.45;72.62
59104;BME280;51449;51.676;5.812;2023-09-19T02:44:34;100804.69;;;15.43;72.56
59104;BME280;51449;51.676;5.812;2023-09-19T02:46:56;100806.22;;;15.40;72.39
59104;BME280;51449;51.676;5.812;2023-09-19T02:49:18;100803.81;;;15.38;72.36
59104;BME280;51449;51.676;5.812;2023-09-19T02:51:40;100800.63;;;15.36;72.31
59104;BME280;51449;51.676;5.812;2023-09-19T02:54:02;100803.75;;;15.35;72.22
59104;BME280;51449;51.676;5.812;2023-09-19T02:56:24;100798.94;;;15.32;72.13
59104;BME280;51449;51.676;5.812;2023-09-19T02:58:46;100802.81;;;15.27;72.33
59104;BME280;51449;51.676;5.812;2023-09-19T03:01:10;100804.34;;;15.25;72.22
59104;BME280;51449;51.676;5.812;2023-09-19T03:03:36;100808.66;;;15.22;72.22
59104;BME280;51449;51.676;5.812;2023-09-19T03:06:00;100809.00;;;15.20;72.35
59104;BME280;51449;51.676;5.812;2023-09-19T03:08:25;100808.94;;;15.17;72.25
59104;BME280;51449;51.676;5.812;2023-09-19T03:10:47;100819.22;;;15.16;72.02
59104;BME280;51449;51.676;5.812;2023-09-19T03:13:12;100823.53;;;15.14;72.08
59104;BME280;51449;51.676;5.812;2023-09-19T03:15:33;100825.44;;;15.10;72.22
59104;BME280;51449;51.676;5.812;2023-09-19T03:17:56;100817.94;;;15.10;71.91
59104;BME280;51449;51.676;5.812;2023-09-19T03:20:19;100815.06;;;15.07;72.09
59104;BME280;51449;51.676;5.812;2023-09-19T03:22:43;100818.56;;;15.04;71.95
59104;BME280;51449;51.676;5.812;2023-09-19T03:25:07;100817.31;;;15.01;71.79
59104;BME280;51449;51.676;5.812;2023-09-19T03:27:31;100811.72;;;14.97;71.77
59104;BME280;51449;51.676;5.812;2023-09-19T03:29:53;100817.63;;;14.96;71.72
59104;BME280;51449;51.676;5.812;2023-09-19T03:32:15;100812.44;;;14.94;71.73
59104;BME280;51449;51.676;5.812;2023-09-19T03:34:39;100810.84;;;14.93;71.39
59104;BME280;51449;51.676;5.812;2023-09-19T03:37:05;100813.59;;;14.93;71.40
59104;BME280;51449;51.676;5.812;2023-09-19T03:39:28;100808.41;;;14.92;71.33
59104;BME280;51449;51.676;5.812;2023-09-19T03:41:49;100817.56;;;14.92;71.40
59104;BME280;51449;51.676;5.812;2023-09-19T03:44:11;100814.78;;;14.92;71.10
59104;BME280;51449;51.676;5.812;2023-09-19T03:46:33;100810.03;;;14.93;71.17
59104;BME280;51449;51.676;5.812;2023-09-19T03:48:57;100810.84;;;14.93;70.79
59104;BME280;51449;51.676;5.812;2023-09-19T03:51:18;100812.00;;;14.92;71.01
59104;BME280;51449;51.676;5.812;2023-09-19T03:53:40;100805.63;;;14.92;70.88
59104;BME280;51449;51.676;5.812;2023-09-19T03:56:03;100798.50;;;14.91;70.79
59104;BME280;51449;51.676;5.812;2023-09-19T03:58:27;100800.09;;;14.92;70.80
59104;BME280;51449;51.676;5.812;2023-09-19T04:00:49;100796.88;;;14.90;70.69
59104;BME280;51449;51.676;5.812;2023-09-19T04:03:11;100802.41;;;14.90;70.63
59104;BME280;51449;51.676;5.812;2023-09-19T04:05:41;100805.56;;;14.88;70.62
59104;BME280;51449;51.676;5.812;2023-09-19T04:08:03;100802.81;;;14.88;70.73
59104;BME280;51449;51.676;5.812;2023-09-19T04:10:24;100807.16;;;14.89;70.83
59104;BME280;51449;51.676;5.812;2023-09-19T04:12:55;100802.81;;;14.88;70.68
59104;BME280;51449;51.676;5.812;2023-09-19T04:15:17;100802.34;;;14.86;70.73
59104;BME280;51449;51.676;5.812;2023-09-19T04:17:39;100804.34;;;14.86;70.55
59104;BME280;51449;51.676;5.812;2023-09-19T04:20:01;100809.09;;;14.85;70.71
59104;BME280;51449;51.676;5.812;2023-09-19T04:22:25;100820.09;;;14.82;70.81
59104;BME280;51449;51.676;5.812;2023-09-19T04:24:47;100824.47;;;14.83;70.66
59104;BME280;51449;51.676;5.812;2023-09-19T04:27:09;100821.31;;;14.84;70.81
59104;BME280;51449;51.676;5.812;2023-09-19T04:29:31;100829.31;;;14.86;70.74
59104;BME280;51449;51.676;5.812;2023-09-19T04:31:53;100826.81;;;14.81;70.88
59104;BME280;51449;51.676;5.812;2023-09-19T04:34:15;100838.25;;;14.79;70.92
59104;BME280;51449;51.676;5.812;2023-09-19T04:36:37;100846.56;;;14.79;70.89
59104;BME280;51449;51.676;5.812;2023-09-19T04:38:59;100852.47;;;14.77;71.19
59104;BME280;51449;51.676;5.812;2023-09-19T04:41:20;100849.69;;;14.77;70.98
59104;BME280;51449;51.676;5.812;2023-09-19T04:43:43;100860.00;;;14.77;71.14
59104;BME280;51449;51.676;5.812;2023-09-19T04:46:05;100873.88;;;14.77;71.25
59104;BME280;51449;51.676;5.812;2023-09-19T04:48:28;100877.09;;;14.79;71.33
59104;BME280;51449;51.676;5.812;2023-09-19T04:50:50;100875.91;;;14.80;71.06
59104;BME280;51449;51.676;5.812;2023-09-19T04:53:12;100881.47;;;14.80;71.38
59104;BME280;51449;51.676;5.812;2023-09-19T04:55:34;100879.13;;;14.82;71.25
59104;BME280;51449;51.676;5.812;2023-09-19T04:57:55;100876.81;;;14.84;71.62
59104;BME280;51449;51.676;5.812;2023-09-19T05:00:22;100878.44;;;14.85;71.59
59104;BME280;51449;51.676;5.812;2023-09-19T05:02:51;100880.81;;;14.87;71.67
59104;BME280;51449;51.676;5.812;2023-09-19T05:05:14;100884.84;;;14.89;71.69
59104;BME280;51449;51.676;5.812;2023-09-19T05:07:36;100880.53;;;14.92;71.56
59104;BME280;51449;51.676;5.812;2023-09-19T05:10:00;100882.50;;;14.91;71.76
59104;BME280;51449;51.676;5.812;2023-09-19T05:12:22;100880.19;;;14.93;71.82
59104;BME280;51449;51.676;5.812;2023-09-19T05:14:44;100886.53;;;14.94;72.10
59104;BME280;51449;51.676;5.812;2023-09-19T05:17:05;100879.47;;;14.96;71.96
59104;BME280;51449;51.676;5.812;2023-09-19T05:19:27;100884.22;;;14.96;71.92
59104;BME280;51449;51.676;5.812;2023-09-19T05:21:49;100890.56;;;14.96;71.88
59104;BME280;51449;51.676;5.812;2023-09-19T05:24:11;100888.56;;;14.97;72.13
59104;BME280;51449;51.676;5.812;2023-09-19T05:26:34;100885.75;;;14.93;72.21
59104;BME280;51449;51.676;5.812;2023-09-19T05:28:55;100898.44;;;14.94;71.93
59104;BME280;51449;51.676;5.812;2023-09-19T05:31:18;100896.09;;;14.96;72.17
59104;BME280;51449;51.676;5.812;2023-09-19T05:33:40;100879.09;;;14.98;72.26
59104;BME280;51449;51.676;5.812;2023-09-19T05:36:02;100884.28;;;14.99;72.30
59104;BME280;51449;51.676;5.812;2023-09-19T05:38:24;100883.47;;;14.99;72.50
59104;BME280;51449;51.676;5.812;2023-09-19T05:40:48;100884.28;;;14.99;72.24
59104;BME280;51449;51.676;5.812;2023-09-19T05:43:09;100891.44;;;15.01;72.39
59104;BME280;51449;51.676;5.812;2023-09-19T05:45:31;100884.72;;;15.02;72.48
59104;BME280;51449;51.676;5.812;2023-09-19T05:47:53;100882.38;;;15.04;72.54
59104;BME280;51449;51.676;5.812;2023-09-19T05:50:25;100886.78;;;15.05;72.59
59104;BME280;51449;51.676;5.812;2023-09-19T05:52:54;100895.53;;;15.07;72.56
59104;BME280;51449;51.676;5.812;2023-09-19T05:55:18;100881.31;;;15.08;72.56
59104;BME280;51449;51.676;5.812;2023-09-19T05:57:40;100884.88;;;15.09;72.68
59104;BME280;51449;51.676;5.812;2023-09-19T06:00:05;100882.91;;;15.09;72.67
59104;BME280;51449;51.676;5.812;2023-09-19T06:02:35;100886.94;;;15.12;72.77
59104;BME280;51449;51.676;5.812;2023-09-19T06:04:59;100883.44;;;15.15;72.71
59104;BME280;51449;51.676;5.812;2023-09-19T06:07:22;100892.22;;;15.17;72.46
59104;BME280;51449;51.676;5.812;2023-09-19T06:09:47;100890.22;;;15.17;72.96
59104;BME280;51449;51.676;5.812;2023-09-19T06:12:09;100891.91;;;15.22;72.77
59104;BME280;51449;51.676;5.812;2023-09-19T06:14:30;100890.75;;;15.23;72.91
59104;BME280;51449;51.676;5.812;2023-09-19T06:16:53;100890.00;;;15.26;72.85
59104;BME280;51449;51.676;5.812;2023-09-19T06:19:16;100881.78;;;15.30;72.91
59104;BME280;51449;51.676;5.812;2023-09-19T06:21:37;100888.22;;;15.34;73.13
59104;BME280;51449;51.676;5.812;2023-09-19T06:24:00;100883.50;;;15.38;72.99
59104;BME280;51449;51.676;5.812;2023-09-19T06:26:22;100886.38;;;15.41;73.03
59104;BME280;51449;51.676;5.812;2023-09-19T06:28:44;100893.19;;;15.44;72.98
59104;BME280;51449;51.676;5.812;2023-09-19T06:31:06;100897.63;;;15.49;72.89
59104;BME280;51449;51.676;5.812;2023-09-19T06:33:31;100898.06;;;15.51;73.21
59104;BME280;51449;51.676;5.812;2023-09-19T06:35:53;100898.50;;;15.53;73.26
59104;BME280;51449;51.676;5.812;2023-09-19T06:38:20;100901.72;;;15.55;73.07
59104;BME280;51449;51.676;5.812;2023-09-19T06:40:42;100907.72;;;15.57;73.28
59104;BME280;51449;51.676;5.812;2023-09-19T06:43:04;100912.16;;;15.61;73.17
59104;BME280;51449;51.676;5.812;2023-09-19T06:45:26;100919.03;;;15.68;72.94
59104;BME280;51449;51.676;5.812;2023-09-19T06:47:50;100921.91;;;15.71;73.07
59104;BME280;51449;51.676;5.812;2023-09-19T06:50:13;100923.16;;;15.74;72.92
59104;BME280;51449;51.676;5.812;2023-09-19T06:52:36;100927.91;;;15.73;73.12
59104;BME280;51449;51.676;5.812;2023-09-19T06:54:57;100929.94;;;15.76;73.10
59104;BME280;51449;51.676;5.812;2023-09-19T06:57:19;100920.13;;;15.82;72.97
59104;BME280;51449;51.676;5.812;2023-09-19T06:59:41;100924.59;;;15.87;72.93
59104;BME280;51449;51.676;5.812;2023-09-19T07:02:03;100920.28;;;15.90;72.82
59104;BME280;51449;51.676;5.812;2023-09-19T07:04:27;100915.16;;;15.92;72.87
59104;BME280;51449;51.676;5.812;2023-09-19T07:06:49;100920.78;;;15.95;72.96
59104;BME280;51449;51.676;5.812;2023-09-19T07:09:11;100911.72;;;15.98;72.74
59104;BME280;51449;51.676;5.812;2023-09-19T07:11:34;100913.41;;;16.03;72.71
59104;BME280;51449;51.676;5.812;2023-09-19T07:13:56;100910.63;;;16.03;72.73
59104;BME280;51449;51.676;5.812;2023-09-19T07:16:19;100926.19;;;16.08;72.63
59104;BME280;51449;51.676;5.812;2023-09-19T07:18:51;100922.22;;;16.09;72.93
59104;BME280;51449;51.676;5.812;2023-09-19T07:21:13;100925.88;;;16.13;72.81
59104;BME280;51449;51.676;5.812;2023-09-19T07:23:37;100918.41;;;16.17;72.62
59104;BME280;51449;51.676;5.812;2023-09-19T07:26:01;100937.56;;;16.22;72.63
59104;BME280;51449;51.676;5.812;2023-09-19T07:28:23;100926.94;;;16.27;72.71
59104;BME280;51449;51.676;5.812;2023-09-19T07:30:44;100929.50;;;16.36;72.44
59104;BME280;51449;51.676;5.812;2023-09-19T07:33:07;100928.78;;;16.43;72.55
59104;BME280;51449;51.676;5.812;2023-09-19T07:35:32;100930.09;;;16.49;72.12
59104;BME280;51449;51.676;5.812;2023-09-19T07:37:55;100926.19;;;16.54;72.41
59104;BME280;51449;51.676;5.812;2023-09-19T07:40:19;100931.06;;;16.60;72.03
59104;BME280;51449;51.676;5.812;2023-09-19T07:42:42;100921.13;;;16.59;72.03
59104;BME280;51449;51.676;5.812;2023-09-19T07:45:08;100932.72;;;16.65;71.79
59104;BME280;51449;51.676;5.812;2023-09-19T07:47:30;100931.59;;;16.69;71.49
59104;BME280;51449;51.676;5.812;2023-09-19T07:49:54;100932.47;;;16.74;71.61
59104;BME280;51449;51.676;5.812;2023-09-19T07:52:17;100929.03;;;16.80;71.27
59104;BME280;51449;51.676;5.812;2023-09-19T07:54:39;100932.34;;;16.89;71.19
59104;BME280;51449;51.676;5.812;2023-09-19T07:57:02;100923.78;;;17.02;71.33
59104;BME280;51449;51.676;5.812;2023-09-19T07:59:25;100925.53;;;17.14;71.11
59104;BME280;51449;51.676;5.812;2023-09-19T08:01:47;100927.25;;;17.22;70.74
59104;BME280;51449;51.676;5.812;2023-09-19T08:04:09;100927.75;;;17.31;70.73
59104;BME280;51449;51.676;5.812;2023-09-19T08:06:31;100937.09;;;17.46;70.49
59104;BME280;51449;51.676;5.812;2023-09-19T08:08:53;100933.72;;;17.60;70.13
59104;BME280;51449;51.676;5.812;2023-09-19T08:11:16;100932.22;;;17.69;69.76
59104;BME280;51449;51.676;5.812;2023-09-19T08:13:42;100930.41;;;17.81;69.24
59104;BME280;51449;51.676;5.812;2023-09-19T08:16:10;100921.72;;;17.86;68.83
59104;BME280;51449;51.676;5.812;2023-09-19T08:18:32;100938.44;;;17.86;68.43
59104;BME280;51449;51.676;5.812;2023-09-19T08:20:54;100939.28;;;17.90;68.21
59104;BME280;51449;51.676;5.812;2023-09-19T08:23:16;100944.03;;;17.89;68.12
59104;BME280;51449;51.676;5.812;2023-09-19T08:25:41;100937.75;;;17.96;67.96
59104;BME280;51449;51.676;5.812;2023-09-19T08:28:04;100933.03;;;18.04;68.11
59104;BME280;51449;51.676;5.812;2023-09-19T08:30:29;100942.69;;;18.10;67.71
59104;BME280;51449;51.676;5.812;2023-09-19T08:32:56;100947.06;;;18.11;67.23
59104;BME280;51449;51.676;5.812;2023-09-19T08:35:23;100940.31;;;18.12;66.87
59104;BME280;51449;51.676;5.812;2023-09-19T08:37:45;100935.13;;;18.14;66.75
59104;BME280;51449;51.676;5.812;2023-09-19T08:40:08;100940.34;;;18.19;66.82
59104;BME280;51449;51.676;5.812;2023-09-19T08:42:30;100939.63;;;18.26;66.68
59104;BME280;51449;51.676;5.812;2023-09-19T08:44:52;100935.34;;;18.35;66.80
59104;BME280;51449;51.676;5.812;2023-09-19T08:47:25;100943.00;;;18.46;66.76
59104;BME280;51449;51.676;5.812;2023-09-19T08:50:19;100941.47;;;18.52;65.60
59104;BME280;51449;51.676;5.812;2023-09-19T08:52:51;100944.34;;;18.59;65.02
59104;BME280;51449;51.676;5.812;2023-09-19T08:55:17;100939.19;;;18.65;65.28
59104;BME280;51449;51.676;5.812;2023-09-19T08:57:43;100945.59;;;18.69;64.86
59104;BME280;51449;51.676;5.812;2023-09-19T09:00:11;100947.63;;;18.72;64.86
59104;BME280;51449;51.676;5.812;2023-09-19T09:02:38;100955.31;;;18.82;65.09
59104;BME280;51449;51.676;5.812;2023-09-19T09:05:04;100953.78;;;18.92;64.71
59104;BME280;51449;51.676;5.812;2023-09-19T09:07:27;100950.19;;;18.91;64.05
59104;BME280;51449;51.676;5.812;2023-09-19T09:09:50;100955.88;;;19.02;64.13
59104;BME280;51449;51.676;5.812;2023-09-19T09:12:13;100943.50;;;19.07;63.82
59104;BME280;51449;51.676;5.812;2023-09-19T09:14:36;100936.38;;;19.16;63.55
59104;BME280;51449;51.676;5.812;2023-09-19T09:17:00;100936.00;;;19.21;63.30
59104;BME280;51449;51.676;5.812;2023-09-19T09:19:22;100938.88;;;19.32;62.91
59104;BME280;51449;51.676;5.812;2023-09-19T09:21:46;100931.75;;;19.45;62.46
59104;BME280;51449;51.676;5.812;2023-09-19T09:24:31;100937.00;;;19.54;62.14
59104;BME280;51449;51.676;5.812;2023-09-19T09:26:59;100944.16;;;19.52;62.54
59104;BME280;51449;51.676;5.812;2023-09-19T09:29:57;100938.59;;;19.59;61.54
59104;BME280;51449;51.676;5.812;2023-09-19T09:34:51;100938.63;;;19.66;61.03
59104;BME280;51449;51.676;5.812;2023-09-19T09:37:14;100929.09;;;19.71;60.79
59104;BME280;51449;51.676;5.812;2023-09-19T09:39:37;100933.50;;;19.82;61.23
59104;BME280;51449;51.676;5.812;2023-09-19T09:41:59;100913.56;;;19.91;60.95
59104;BME280;51449;51.676;5.812;2023-09-19T09:44:21;100904.41;;;20.01;61.55
59104;BME280;51449;51.676;5.812;2023-09-19T09:46:49;100905.63;;;20.07;59.95
59104;BME280;51449;51.676;5.812;2023-09-19T09:49:11;100900.44;;;20.09;59.59
59104;BME280;51449;51.676;5.812;2023-09-19T09:51:40;100907.63;;;20.14;59.75
59104;BME280;51449;51.676;5.812;2023-09-19T09:54:15;100907.22;;;20.16;59.03
59104;BME280;51449;51.676;5.812;2023-09-19T09:56:58;100903.25;;;20.17;58.24
59104;BME280;51449;51.676;5.812;2023-09-19T09:59:22;100911.22;;;20.15;58.51
59104;BME280;51449;51.676;5.812;2023-09-19T10:01:46;100912.81;;;20.16;57.54
59104;BME280;51449;51.676;5.812;2023-09-19T10:04:10;100910.03;;;20.16;57.92
59104;BME280;51449;51.676;5.812;2023-09-19T10:06:40;100905.22;;;20.23;58.30
59104;BME280;51449;51.676;5.812;2023-09-19T10:09:09;100914.06;;;20.29;58.15
59104;BME280;51449;51.676;5.812;2023-09-19T10:12:05;100912.84;;;20.37;57.49
59104;BME280;51449;51.676;5.812;2023-09-19T10:14:30;100915.66;;;20.44;57.23
59104;BME280;51449;51.676;5.812;2023-09-19T10:17:00;100916.84;;;20.50;57.85
59104;BME280;51449;51.676;5.812;2023-09-19T10:19:30;100915.66;;;20.55;57.45
59104;BME280;51449;51.676;5.812;2023-09-19T10:22:00;100914.47;;;20.67;57.66
59104;BME280;51449;51.676;5.812;2023-09-19T10:24:24;100907.66;;;20.82;57.67
59104;BME280;51449;51.676;5.812;2023-09-19T10:26:50;100911.66;;;20.88;57.64
59104;BME280;51449;51.676;5.812;2023-09-19T10:29:15;100918.41;;;21.02;56.11
59104;BME280;51449;51.676;5.812;2023-09-19T10:31:39;100905.66;;;20.86;55.91
59104;BME280;51449;51.676;5.812;2023-09-19T10:34:09;100908.88;;;20.70;55.96
59104;BME280;51449;51.676;5.812;2023-09-19T10:36:33;100912.06;;;20.69;56.08
59104;BME280;51449;51.676;5.812;2023-09-19T10:38:59;100910.47;;;20.53;55.71
59104;BME280;51449;51.676;5.812;2023-09-19T10:41:28;100912.44;;;20.42;55.96
59104;BME280;51449;51.676;5.812;2023-09-19T10:43:53;100911.69;;;20.60;56.14
59104;BME280;51449;51.676;5.812;2023-09-19T10:46:17;100900.09;;;20.68;56.44
59104;BME280;51449;51.676;5.812;2023-09-19T10:48:40;100910.44;;;20.82;55.68
59104;BME280;51449;51.676;5.812;2023-09-19T10:51:09;100907.22;;;20.94;55.52
59104;BME280;51449;51.676;5.812;2023-09-19T10:53:45;100898.03;;;21.05;55.54
59104;BME280;51449;51.676;5.812;2023-09-19T10:56:22;100899.19;;;21.11;54.54
59104;BME280;51449;51.676;5.812;2023-09-19T10:58:49;100904.75;;;21.25;54.76
59104;BME280;51449;51.676;5.812;2023-09-19T11:01:11;100906.72;;;21.35;54.26
59104;BME280;51449;51.676;5.812;2023-09-19T11:03:34;100893.06;;;21.48;54.48
59104;BME280;51449;51.676;5.812;2023-09-19T11:08:28;100902.34;;;21.42;53.29
59104;BME280;51449;51.676;5.812;2023-09-19T11:10:50;100887.13;;;21.32;53.58
59104;BME280;51449;51.676;5.812;2023-09-19T11:13:30;100869.50;;;21.28;53.48
59104;BME280;51449;51.676;5.812;2023-09-19T11:26:44;100863.09;;;21.42;53.73
59104;BME280;51449;51.676;5.812;2023-09-19T11:29:25;100852.28;;;21.36;53.30
59104;BME280;51449;51.676;5.812;2023-09-19T11:31:51;100853.06;;;21.44;52.96
59104;BME280;51449;51.676;5.812;2023-09-19T11:36:57;100838.16;;;21.62;53.01
59104;BME280;51449;51.676;5.812;2023-09-19T11:39:27;100846.56;;;21.62;52.70
59104;BME280;51449;51.676;5.812;2023-09-19T11:41:48;100833.31;;;21.66;52.20
59104;BME280;51449;51.676;5.812;2023-09-19T11:46:58;100837.63;;;21.77;52.75
59104;BME280;51449;51.676;5.812;2023-09-19T11:49:32;100837.09;;;21.97;52.10
59104;BME280;51449;51.676;5.812;2023-09-19T11:51:55;100821.44;;;22.03;51.10
59104;BME280;51449;51.676;5.812;2023-09-19T11:54:18;100827.72;;;22.18;51.19
59104;BME280;51449;51.676;5.812;2023-09-19T11:56:43;100831.69;;;22.28;50.43
59104;BME280;51449;51.676;5.812;2023-09-19T11:59:23;100831.94;;;22.44;50.52
59104;BME280;51449;51.676;5.812;2023-09-19T12:01:51;100826.72;;;22.46;50.65
59104;BME280;51449;51.676;5.812;2023-09-19T12:04:21;100813.50;;;22.43;49.25
59104;BME280;51449;51.676;5.812;2023-09-19T12:06:59;100823.59;;;22.33;49.04
59104;BME280;51449;51.676;5.812;2023-09-19T12:09:21;100817.53;;;22.38;49.64
59104;BME280;51449;51.676;5.812;2023-09-19T12:11:43;100827.19;;;22.37;49.98
59104;BME280;51449;51.676;5.812;2023-09-19T12:14:08;100817.53;;;22.42;50.35
59104;BME280;51449;51.676;5.812;2023-09-19T12:16:30;100815.09;;;22.44;49.84
59104;BME280;51449;51.676;5.812;2023-09-19T12:18:52;100819.75;;;22.58;50.35
59104;BME280;51449;51.676;5.812;2023-09-19T12:21:23;100810.06;;;22.66;50.12
59104;BME280;51449;51.676;5.812;2023-09-19T12:24:07;100811.56;;;22.74;49.02
59104;BME280;51449;51.676;5.812;2023-09-19T12:26:42;100818.81;;;22.72;48.95
59104;BME280;51449;51.676;5.812;2023-09-19T12:29:12;100804.13;;;22.57;48.11
59104;BME280;51449;51.676;5.812;2023-09-19T12:31:35;100806.69;;;22.44;48.62
59104;BME280;51449;51.676;5.812;2023-09-19T12:33:58;100819.16;;;22.36;48.57
59104;BME280;51449;51.676;5.812;2023-09-19T12:36:23;100822.44;;;22.31;49.37
59104;BME280;51449;51.676;5.812;2023-09-19T12:38:48;100825.69;;;22.26;49.26
59104;BME280;51449;51.676;5.812;2023-09-19T12:41:10;100820.91;;;22.22;49.07
59104;BME280;51449;51.676;5.812;2023-09-19T12:43:33;100808.94;;;22.11;49.66
59104;BME280;51449;51.676;5.812;2023-09-19T12:45:55;100812.63;;;22.01;50.03
59104;BME280;51449;51.676;5.812;2023-09-19T12:48:25;100815.50;;;21.94;50.83
59104;BME280;51449;51.676;5.812;2023-09-19T12:51:08;100818.75;;;21.89;51.01
59104;BME280;51449;51.676;5.812;2023-09-19T12:53:41;100822.03;;;21.76;50.86
59104;BME280;51449;51.676;5.812;2023-09-19T12:56:09;100816.50;;;21.62;50.94
59104;BME280;51449;51.676;5.812;2023-09-19T12:58:47;100820.63;;;21.47;50.73
59104;BME280;51449;51.676;5.812;2023-09-19T13:01:16;100838.69;;;21.31;51.10
59104;BME280;51449;51.676;5.812;2023-09-19T13:03:39;100838.28;;;21.26;51.88
59104;BME280;51449;51.676;5.812;2023-09-19T13:06:02;100831.50;;;21.27;52.56
59104;BME280;51449;51.676;5.812;2023-09-19T13:08:27;100827.88;;;21.30;52.72